Time;durP1;ratioP1;P1;durP2;ratioP2;P2;SDS_P1;SDS_P2;PMS_P1;PMS_P2;Temp;Humidity;BMP_temperature;BMP_pressure;BME280_temperature;BME280_humidity;BME280_pressure;Samples;Min_cycle;Max_cycle;Signal;HPM_P1;HPM_P2
2022/05/20 00:00:48;;;;;;;7.72;2.80;;;14.90;99.90;;;;;;4773976;30;20047;-93
2022/05/20 00:03:15;;;;;;;5.38;2.55;;;14.90;99.90;;;;;;4788291;30;20038;-90
2022/05/20 00:05:47;;;;;;;7.13;3.40;;;14.90;99.90;;;;;;4788785;30;20102;-90
2022/05/20 00:08:24;;;;;;;10.13;3.15;;;14.90;99.90;;;;;;4796418;29;20035;-91
2022/05/20 00:10:55;;;;;;;8.35;3.03;;;14.90;99.90;;;;;;4786433;30;20061;-90
2022/05/20 00:13:24;;;;;;;12.75;3.35;;;14.90;99.90;;;;;;4788411;29;20035;-90
2022/05/20 00:15:53;;;;;;;5.68;3.00;;;14.90;99.90;;;;;;4787887;30;20044;-91
2022/05/20 00:18:20;;;;;;;7.10;3.05;;;15.00;99.90;;;;;;4787938;30;20043;-90
2022/05/20 00:20:47;;;;;;;5.07;2.88;;;14.90;99.90;;;;;;4787868;30;20081;-90
2022/05/20 00:23:14;;;;;;;8.18;3.33;;;14.90;99.90;;;;;;4773084;30;20035;-90
2022/05/20 00:25:47;;;;;;;6.72;3.25;;;14.90;99.90;;;;;;4788904;29;20035;-90
2022/05/20 00:28:18;;;;;;;5.28;3.20;;;14.90;99.90;;;;;;4776644;30;20031;-89
2022/05/20 00:30:57;;;;;;;10.05;3.25;;;14.80;99.90;;;;;;4791704;29;20050;-92
2022/05/20 00:33:26;;;;;;;8.07;3.28;;;14.80;99.90;;;;;;4776537;30;20051;-90
2022/05/20 00:35:54;;;;;;;11.63;3.42;;;14.70;99.90;;;;;;4776655;30;20035;-90
2022/05/20 00:38:24;;;;;;;9.50;3.03;;;14.70;99.90;;;;;;4776589;30;20035;-91
2022/05/20 00:40:53;;;;;;;6.82;3.53;;;14.70;99.90;;;;;;4776387;30;20563;-90
2022/05/20 00:43:32;;;;;;;7.38;3.20;;;14.60;99.90;;;;;;4791215;29;20035;-90
2022/05/20 00:46:09;;;;;;;6.97;3.50;;;14.60;99.90;;;;;;4791290;29;20486;-90
2022/05/20 00:48:36;;;;;;;5.35;3.78;;;14.60;99.90;;;;;;4791003;30;20035;-90
2022/05/20 00:51:30;;;;;;;9.20;3.58;;;14.70;99.90;;;;;;4791018;29;20466;-91
2022/05/20 00:54:04;;;;;;;9.57;3.28;;;14.70;99.90;;;;;;4776322;30;20122;-91
2022/05/20 00:56:38;;;;;;;6.55;2.92;;;14.70;99.90;;;;;;4776265;30;20059;-90
2022/05/20 00:59:08;;;;;;;8.18;3.30;;;14.70;99.90;;;;;;4791129;29;20100;-89
2022/05/20 01:01:36;;;;;;;10.60;3.60;;;14.70;99.90;;;;;;4775901;30;20036;-91
2022/05/20 01:04:05;;;;;;;10.82;3.42;;;14.70;99.90;;;;;;4791197;29;20049;-90
2022/05/20 01:06:33;;;;;;;5.78;2.60;;;14.70;99.90;;;;;;4790724;29;20058;-93
2022/05/20 01:08:59;;;;;;;13.55;2.92;;;14.70;99.90;;;;;;4790887;30;20027;-90
2022/05/20 01:11:27;;;;;;;10.32;3.20;;;14.80;99.90;;;;;;4761137;30;20504;-91
2022/05/20 01:13:56;;;;;;;8.88;3.95;;;14.80;99.90;;;;;;4790613;30;20096;-90
2022/05/20 01:16:23;;;;;;;7.13;3.67;;;14.90;99.90;;;;;;4761176;30;20035;-89
2022/05/20 01:18:56;;;;;;;11.68;4.03;;;14.80;99.90;;;;;;4790757;29;20023;-92
2022/05/20 01:21:23;;;;;;;9.23;3.85;;;14.80;99.90;;;;;;4775406;30;20134;-92
2022/05/20 01:23:50;;;;;;;8.60;3.85;;;14.80;99.90;;;;;;4790392;30;20508;-92
2022/05/20 01:26:17;;;;;;;7.20;3.42;;;14.70;99.90;;;;;;4760734;30;20039;-90
2022/05/20 01:28:43;;;;;;;5.60;3.72;;;14.70;99.90;;;;;;4760856;30;20027;-91
2022/05/20 01:31:14;;;;;;;8.45;3.38;;;14.70;99.90;;;;;;4761066;30;20031;-91
2022/05/20 01:33:47;;;;;;;9.75;3.72;;;14.70;99.90;;;;;;4790419;29;20041;-91
2022/05/20 01:36:21;;;;;;;8.77;3.55;;;14.70;99.90;;;;;;4790437;30;20100;-90
2022/05/20 01:38:49;;;;;;;9.38;4.63;;;14.60;99.90;;;;;;4789795;30;20498;-92
2022/05/20 01:41:35;;;;;;;7.88;3.50;;;14.50;99.90;;;;;;4790131;30;20401;-91
2022/05/20 01:44:24;;;;;;;8.55;4.30;;;14.50;99.90;;;;;;4790388;29;20118;-89
2022/05/20 01:47:28;;;;;;;6.50;3.53;;;14.50;99.90;;;;;;4790082;29;20050;-92
2022/05/20 01:49:57;;;;;;;10.07;3.67;;;14.50;99.90;;;;;;4790367;29;20046;-91
2022/05/20 01:52:34;;;;;;;12.18;4.15;;;14.50;99.90;;;;;;4790188;30;20051;-90
2022/05/20 01:55:14;;;;;;;13.50;4.30;;;14.40;99.90;;;;;;4760655;30;20031;-89
2022/05/20 01:58:15;;;;;;;11.05;4.35;;;14.30;99.90;;;;;;4776401;30;20107;-91
2022/05/20 02:00:48;;;;;;;11.95;4.80;;;14.30;99.90;;;;;;4790459;29;20043;-90
2022/05/20 02:03:43;;;;;;;9.52;4.80;;;14.20;99.90;;;;;;4790241;29;20039;-89
2022/05/20 02:06:32;;;;;;;10.65;4.90;;;14.20;99.90;;;;;;4776289;30;20057;-93
2022/05/20 02:09:28;;;;;;;10.40;5.20;;;14.10;99.90;;;;;;4775551;30;20560;-91
2022/05/20 02:11:56;;;;;;;9.63;4.65;;;14.00;99.90;;;;;;4790684;29;20036;-93
2022/05/20 02:14:49;;;;;;;15.68;5.30;;;14.00;99.90;;;;;;4791708;29;20035;-90
2022/05/20 02:17:30;;;;;;;10.13;4.45;;;14.00;99.90;;;;;;4795148;30;20042;-90
2022/05/20 02:20:24;;;;;;;11.50;5.18;;;13.90;99.90;;;;;;4761617;30;20039;-90
2022/05/20 02:22:55;;;;;;;7.28;4.35;;;13.90;99.90;;;;;;4790202;29;20032;-90
2022/05/20 02:25:30;;;;;;;16.08;5.57;;;13.90;99.90;;;;;;4789741;30;20043;-89
2022/05/20 02:28:17;;;;;;;11.13;4.82;;;13.80;99.90;;;;;;4789421;29;20120;-93
2022/05/20 02:30:44;;;;;;;12.18;4.35;;;13.80;99.90;;;;;;4789308;29;20063;-92
2022/05/20 02:33:18;;;;;;;9.32;4.53;;;13.70;99.90;;;;;;4789600;29;20023;-92
2022/05/20 02:35:48;;;;;;;;;;;13.70;99.90;;;;;;4774972;30;20043;-93
2022/05/20 02:38:36;;;;;;;11.77;4.93;;;13.70;99.90;;;;;;4771076;30;19917;-91
2022/05/20 02:41:03;;;;;;;9.63;4.93;;;13.80;99.90;;;;;;4755838;30;20470;-90
2022/05/20 02:43:33;;;;;;;12.00;5.10;;;13.80;99.90;;;;;;4741169;30;20533;-89
2022/05/20 02:46:02;;;;;;;10.65;5.18;;;13.80;99.90;;;;;;4740959;30;20134;-92
2022/05/20 02:48:29;;;;;;;10.95;5.10;;;13.80;99.90;;;;;;4740761;30;20174;-91
2022/05/20 02:50:58;;;;;;;11.13;5.47;;;13.80;99.90;;;;;;4738289;30;20036;-91
2022/05/20 02:53:25;;;;;;;12.80;5.10;;;13.80;99.90;;;;;;4738087;30;20035;-92
2022/05/20 02:55:52;;;;;;;11.23;5.43;;;13.80;99.90;;;;;;4738137;30;20177;-92
2022/05/20 03:04:14;;;;;;;10.60;5.13;;;13.80;99.90;;;;;;4752595;30;20032;-90
2022/05/20 03:06:50;;;;;;;10.68;4.78;;;13.70;99.90;;;;;;4752561;30;20130;-92
2022/05/20 03:09:20;;;;;;;12.20;5.28;;;13.70;99.90;;;;;;4752617;30;20037;-92
2022/05/20 03:11:54;;;;;;;14.85;4.57;;;13.70;99.90;;;;;;4752447;30;20032;-90
2022/05/20 03:14:23;;;;;;;10.52;4.90;;;13.60;99.90;;;;;;4752285;30;20028;-89
2022/05/20 03:17:08;;;;;;;9.40;5.45;;;13.60;99.90;;;;;;4770135;30;20043;-91
2022/05/20 03:19:39;;;;;;;9.63;4.93;;;13.60;99.90;;;;;;4767257;30;20117;-93
2022/05/20 03:22:07;;;;;;;13.65;4.75;;;13.50;99.90;;;;;;4766031;30;20040;-90
2022/05/20 03:24:35;;;;;;;12.18;4.65;;;13.50;99.90;;;;;;4768434;30;20074;-91
2022/05/20 03:27:18;;;;;;;;;;;;;;;;;;;;;
2022/05/20 03:29:54;;;;;;;9.98;4.47;;;13.50;99.90;;;;;;4807573;24;20058;-92
2022/05/20 03:32:25;;;;;;;11.82;4.50;;;13.50;99.90;;;;;;5168835;24;20059;-90
2022/05/20 03:40:13;;;;;;;9.98;4.38;;;13.40;99.90;;;;;;4822451;29;20123;-91
2022/05/20 03:42:46;;;;;;;9.98;4.35;;;13.50;99.90;;;;;;4793160;29;20031;-91
2022/05/20 03:50:32;;;;;;;9.25;4.07;;;13.50;99.90;;;;;;5042006;24;20147;-90
2022/05/20 03:53:14;;;;;;;7.70;4.22;;;13.60;99.90;;;;;;4793299;29;20039;-91
2022/05/20 03:55:50;;;;;;;8.45;3.67;;;13.60;99.90;;;;;;4736608;30;20126;-92
2022/05/20 03:58:26;;;;;;;8.13;3.58;;;13.70;99.90;;;;;;4750263;30;20040;-92
2022/05/20 04:03:40;;;;;;;5.63;3.30;;;13.90;99.90;;;;;;5073797;24;20122;-93
2022/05/20 04:06:53;;;;;;;10.63;2.80;;;14.00;99.90;;;;;;4776378;30;20055;-90
2022/05/20 04:12:40;;;;;;;5.82;2.83;;;14.30;99.90;;;;;;5081863;24;20051;-91
2022/05/20 04:15:23;;;;;;;6.40;3.70;;;14.40;99.90;;;;;;5221886;24;20041;31
2022/05/20 04:18:06;;;;;;;8.00;2.92;;;14.50;99.90;;;;;;4751567;30;20048;-92
2022/05/20 04:20:51;;;;;;;7.83;2.87;;;14.60;99.90;;;;;;4782875;30;20028;-92
2022/05/20 04:26:26;;;;;;;6.40;3.00;;;14.80;99.90;;;;;;4769486;30;19910;-94
2022/05/20 04:29:19;;;;;;;5.25;2.60;;;15.00;99.90;;;;;;4770798;30;20070;-93
2022/05/20 04:32:10;;;;;;;8.68;2.40;;;15.40;99.90;;;;;;4755275;30;20044;-95
2022/05/20 04:35:04;;;;;;;9.68;3.00;;;15.60;99.90;;;;;;4769518;30;20048;-92
2022/05/20 04:37:44;;;;;;;7.78;2.65;;;16.00;99.90;;;;;;4766054;30;20107;-94
2022/05/20 04:40:21;;;;;;;7.57;3.20;;;17.80;99.90;;;;;;4752731;30;20055;-92
2022/05/20 04:48:34;;;;;;;6.45;2.63;;;24.30;99.90;;;;;;4771330;30;20119;-93
2022/05/20 04:51:14;;;;;;;8.73;3.17;;;24.90;99.90;;;;;;4752887;30;20032;-94
2022/05/20 04:56:35;;;;;;;11.23;3.78;;;26.10;99.90;;;;;;4767156;30;20051;-95
2022/05/20 04:59:12;;;;;;;9.07;4.32;;;26.70;99.90;;;;;;4767974;30;20040;-94
2022/05/20 05:01:48;;;;;;;7.97;4.05;;;26.70;99.90;;;;;;4737550;30;20131;-93
2022/05/20 05:04:50;;;;;;;8.80;4.07;;;26.60;99.90;;;;;;4786343;24;20059;-91
2022/05/20 05:20:03;;;;;;;8.55;5.30;;;28.40;99.90;;;;;;4850962;24;20067;-90
2022/05/20 05:23:03;;;;;;;8.32;5.10;;;28.90;99.90;;;;;;4779630;30;20085;-91
2022/05/20 05:25:33;;;;;;;10.90;4.90;;;29.10;99.90;;;;;;4783319;30;20069;-91
2022/05/20 05:28:05;;;;;;;8.05;4.85;;;29.10;99.90;;;;;;4787557;29;20040;-91
2022/05/20 05:30:35;;;;;;;9.48;4.78;;;29.00;99.90;;;;;;4758792;30;20075;-88
2022/05/20 05:33:02;;;;;;;14.07;5.40;;;29.10;99.90;;;;;;4756860;30;20027;-88
2022/05/20 05:35:32;;;;;;;13.90;6.40;;;29.30;99.90;;;;;;4757037;30;20063;-88
2022/05/20 05:37:58;;;;;;;9.00;5.57;;;29.70;99.90;;;;;;4765298;30;20058;-91
2022/05/20 05:40:31;;;;;;;6.72;5.30;;;30.20;99.90;;;;;;4744900;30;20048;-91
2022/05/20 05:42:59;;;;;;;6.05;5.13;;;29.80;99.90;;;;;;4768192;30;20037;-91
2022/05/20 05:45:28;;;;;;;6.00;5.40;;;30.00;99.90;;;;;;4742165;30;20040;-91
2022/05/20 05:48:01;;;;;;;5.68;5.20;;;29.80;99.90;;;;;;4764490;30;20130;-90
2022/05/20 05:50:29;;;;;;;10.07;5.20;;;30.10;99.90;;;;;;4760315;30;20096;-90
2022/05/20 05:52:59;;;;;;;6.32;4.75;;;29.30;99.90;;;;;;4755126;30;20032;-89
2022/05/20 05:55:27;;;;;;;6.13;4.82;;;28.30;99.90;;;;;;4756987;30;20039;-89
2022/05/20 05:57:54;;;;;;;6.80;5.03;;;28.00;99.90;;;;;;4746754;30;20540;-89
2022/05/20 06:00:21;;;;;;;7.72;4.97;;;27.80;99.90;;;;;;4776474;30;20044;-89
2022/05/20 06:02:48;;;;;;;6.25;4.78;;;28.30;99.90;;;;;;4769421;30;20561;-91
2022/05/20 06:05:14;;;;;;;6.93;5.18;;;28.30;99.90;;;;;;4772364;30;20075;-89
2022/05/20 06:07:41;;;;;;;5.35;4.85;;;27.80;99.90;;;;;;4772209;30;20028;-88
2022/05/20 06:10:09;;;;;;;5.72;5.18;;;27.50;99.90;;;;;;4772298;30;20043;-89
2022/05/20 06:12:36;;;;;;;6.57;5.30;;;27.50;99.90;;;;;;4771817;30;20035;-90
2022/05/20 06:15:08;;;;;;;9.75;5.80;;;27.70;99.90;;;;;;4777314;30;20036;-89
2022/05/20 06:17:35;;;;;;;6.43;4.93;;;28.10;99.90;;;;;;4771940;30;20066;-89
2022/05/20 06:20:03;;;;;;;5.70;5.20;;;28.10;99.90;;;;;;4772144;30;20035;-89
2022/05/20 06:22:33;;;;;;;6.63;5.60;;;28.20;99.90;;;;;;4754170;30;20068;-90
2022/05/20 06:24:59;;;;;;;7.95;5.43;;;28.00;99.90;;;;;;4754748;30;20042;-90
2022/05/20 06:27:26;;;;;;;6.68;6.10;;;28.00;99.90;;;;;;4754493;30;20037;-88
2022/05/20 06:29:52;;;;;;;5.93;5.50;;;28.20;98.70;;;;;;4754376;30;20024;-89
2022/05/20 06:32:20;;;;;;;7.78;6.60;;;28.00;97.90;;;;;;4756121;30;20498;-90
2022/05/20 06:40:19;;;;;;;8.18;6.90;;;28.10;96.40;;;;;;4768417;30;20052;-89
2022/05/20 06:42:46;;;;;;;7.38;6.53;;;28.10;96.30;;;;;;4753804;30;20033;-91
2022/05/20 06:45:15;;;;;;;7.25;6.75;;;28.30;95.30;;;;;;4753646;30;20055;-88
2022/05/20 06:47:43;;;;;;;6.72;6.22;;;28.80;95.30;;;;;;4728933;30;20036;-91
2022/05/20 06:50:12;;;;;;;6.80;6.28;;;28.30;95.60;;;;;;4753663;30;20036;-88
2022/05/20 06:52:42;;;;;;;6.25;5.93;;;28.10;96.20;;;;;;4753602;30;20040;-90
2022/05/20 06:55:09;;;;;;;7.80;6.00;;;28.40;96.20;;;;;;4753336;30;20105;-92
2022/05/20 06:57:39;;;;;;;6.50;6.10;;;28.10;96.30;;;;;;4753354;30;20067;-87
2022/05/20 07:00:11;;;;;;;6.68;6.28;;;28.50;96.50;;;;;;4753513;30;20040;-90
2022/05/20 07:02:40;;;;;;;7.10;6.40;;;29.10;96.40;;;;;;4753522;30;20047;-90
2022/05/20 07:05:08;;;;;;;6.93;6.43;;;30.30;95.90;;;;;;4724978;30;20582;-91
2022/05/20 07:07:37;;;;;;;7.40;6.72;;;30.30;95.10;;;;;;4755164;30;20044;-92
2022/05/20 07:10:06;;;;;;;7.03;6.63;;;30.90;94.70;;;;;;4753056;30;20044;-89
2022/05/20 07:12:35;;;;;;;6.97;6.47;;;30.90;94.30;;;;;;4754183;30;20043;-88
2022/05/20 07:15:02;;;;;;;7.88;6.97;;;31.00;93.40;;;;;;4753854;30;20135;-91
2022/05/20 07:17:29;;;;;;;7.45;6.88;;;30.90;92.40;;;;;;4754106;30;20475;-89
2022/05/20 07:19:55;;;;;;;10.75;7.28;;;30.20;91.90;;;;;;4753770;30;20135;-88
2022/05/20 07:22:22;;;;;;;9.55;7.30;;;30.00;92.20;;;;;;4769873;30;20113;-87
2022/05/20 07:24:48;;;;;;;8.45;7.65;;;29.80;91.60;;;;;;4770671;30;20038;-91
2022/05/20 07:27:15;;;;;;;8.38;7.32;;;29.80;91.60;;;;;;4785580;29;20040;-88
2022/05/20 07:29:42;;;;;;;8.30;7.60;;;29.10;90.90;;;;;;4770926;30;20089;-88
2022/05/20 07:32:09;;;;;;;8.45;7.95;;;28.70;90.20;;;;;;4770732;30;20040;-90
2022/05/20 07:34:36;;;;;;;10.85;8.32;;;28.60;90.50;;;;;;4785228;30;20036;-87
2022/05/20 07:37:04;;;;;;;8.00;7.18;;;29.30;90.60;;;;;;4770826;30;20067;-87
2022/05/20 07:39:30;;;;;;;8.40;7.90;;;29.50;90.60;;;;;;4770206;30;20036;-88
2022/05/20 07:42:00;;;;;;;7.97;7.30;;;30.00;90.00;;;;;;4770297;30;20123;-86
2022/05/20 07:44:27;;;;;;;8.27;7.57;;;29.20;90.50;;;;;;4770337;30;20043;-87
2022/05/20 07:46:56;;;;;;;9.10;7.80;;;28.50;90.70;;;;;;4770416;30;20469;-86
2022/05/20 07:49:23;;;;;;;8.82;7.47;;;27.90;90.90;;;;;;4770490;30;20035;-88
2022/05/20 07:51:52;;;;;;;7.88;7.38;;;27.60;91.50;;;;;;4770939;30;20031;-90
2022/05/20 07:54:23;;;;;;;8.10;7.50;;;27.80;90.50;;;;;;4770968;30;20028;-88
2022/05/20 07:56:57;;;;;;;8.07;7.57;;;28.20;90.80;;;;;;4770322;30;20035;-89
2022/05/20 07:59:30;;;;;;;8.38;7.80;;;28.10;90.00;;;;;;4770192;30;20063;-89
2022/05/20 08:01:59;;;;;;;8.00;7.35;;;28.10;89.10;;;;;;4770524;30;20050;-87
2022/05/20 08:05:01;;;;;;;7.85;7.00;;;28.00;90.10;;;;;;4785307;30;20482;-89
2022/05/20 08:07:44;;;;;;;8.30;7.40;;;28.10;89.10;;;;;;4785343;30;20036;-88
2022/05/20 08:10:32;;;;;;;7.65;7.15;;;27.90;90.10;;;;;;4770325;30;20044;-88
2022/05/20 08:12:58;;;;;;;7.80;7.15;;;28.40;89.90;;;;;;4756649;30;20043;-87
2022/05/20 08:15:36;;;;;;;7.75;7.13;;;28.50;88.80;;;;;;4769332;30;20047;-90
2022/05/20 08:18:02;;;;;;;8.35;7.18;;;28.40;88.80;;;;;;4772930;30;20031;-90
2022/05/20 08:20:30;;;;;;;10.93;6.85;;;27.80;89.80;;;;;;4770960;30;20406;-89
2022/05/20 08:22:58;;;;;;;6.82;6.53;;;27.80;90.10;;;;;;4770279;30;20032;-88
2022/05/20 08:25:26;;;;;;;7.55;7.15;;;27.80;89.20;;;;;;4755162;30;20047;-88
2022/05/20 08:27:53;;;;;;;9.10;8.27;;;27.90;85.20;;;;;;4769932;30;20054;-87
2022/05/20 08:30:26;;;;;;;7.85;7.28;;;27.60;80.30;;;;;;4769940;30;20031;-89
2022/05/20 08:32:53;;;;;;;8.45;8.00;;;27.30;83.20;;;;;;4769989;30;20046;-89
2022/05/20 08:35:21;;;;;;;8.88;8.20;;;27.10;82.70;;;;;;4769931;30;20044;-90
2022/05/20 08:37:49;;;;;;;9.35;8.63;;;27.50;83.10;;;;;;4770042;30;20562;-89
2022/05/20 08:40:34;;;;;;;8.82;8.13;;;27.40;83.90;;;;;;4771107;30;20040;-91
2022/05/20 08:43:01;;;;;;;9.10;8.60;;;27.60;83.30;;;;;;4773316;30;20403;-88
2022/05/20 08:45:32;;;;;;;8.93;8.35;;;27.50;82.70;;;;;;4769884;30;20032;-91
2022/05/20 08:47:59;;;;;;;9.60;9.00;;;27.60;83.00;;;;;;4772786;30;20042;-88
2022/05/20 08:50:48;;;;;;;14.40;8.85;;;27.40;78.90;;;;;;4773295;30;20032;-88
2022/05/20 08:53:36;;;;;;;9.68;9.00;;;27.30;81.00;;;;;;4773323;30;20036;-89
2022/05/20 08:56:10;;;;;;;9.25;8.40;;;27.30;83.20;;;;;;4773223;30;20130;-89
2022/05/20 08:58:41;;;;;;;9.65;8.82;;;27.50;83.20;;;;;;4773156;30;20398;-90
2022/05/20 09:01:08;;;;;;;9.90;9.20;;;27.50;79.30;;;;;;4772682;30;20063;-89
2022/05/20 09:03:35;;;;;;;10.38;9.70;;;27.40;79.80;;;;;;4772804;30;20061;-90
2022/05/20 09:06:11;;;;;;;9.63;9.02;;;27.80;76.50;;;;;;4772907;30;20409;-89
2022/05/20 09:08:38;;;;;;;9.80;9.05;;;27.80;80.50;;;;;;4772797;30;20040;-90
2022/05/20 09:11:11;;;;;;;9.70;9.20;;;27.70;78.80;;;;;;4772925;30;20096;-89
2022/05/20 09:16:30;;;;;;;10.45;9.85;;;27.60;75.20;;;;;;4772814;30;20059;-90
2022/05/20 09:19:12;;;;;;;10.25;9.73;;;27.60;74.80;;;;;;4772755;30;20027;-91
2022/05/20 09:21:46;;;;;;;9.90;9.40;;;27.60;72.30;;;;;;4772584;30;20139;-88
2022/05/20 09:24:19;;;;;;;10.60;9.60;;;27.60;72.50;;;;;;4772734;30;20032;-89
2022/05/20 09:26:59;;;;;;;10.65;9.85;;;27.70;71.50;;;;;;4772491;30;20161;-89
2022/05/20 09:30:09;;;;;;;10.88;9.80;;;27.60;72.10;;;;;;4772630;30;20108;-89
2022/05/20 09:32:38;;;;;;;9.55;8.88;;;27.50;73.90;;;;;;4772539;30;20043;-88
2022/05/20 09:35:13;;;;;;;9.60;9.20;;;27.60;76.70;;;;;;4772622;30;20032;-88
2022/05/20 09:37:40;;;;;;;10.10;9.50;;;27.60;76.60;;;;;;4757676;30;20093;-89
2022/05/20 09:40:19;;;;;;;10.15;9.50;;;27.60;74.90;;;;;;4772238;30;20039;-88
2022/05/20 09:43:02;;;;;;;10.10;9.38;;;27.40;72.80;;;;;;4772414;30;20032;-88
2022/05/20 09:45:45;;;;;;;10.18;9.48;;;27.30;68.10;;;;;;4772390;30;20131;-89
2022/05/20 09:48:36;;;;;;;10.32;9.60;;;27.20;66.60;;;;;;4772772;30;20035;-89
2022/05/20 09:51:12;;;;;;;10.35;9.70;;;26.90;63.20;;;;;;4750969;30;20050;-89
2022/05/20 09:53:43;;;;;;;10.60;10.00;;;26.90;64.60;;;;;;4772049;30;20044;-88
2022/05/20 09:56:30;;;;;;;11.07;10.48;;;26.90;62.30;;;;;;4772211;30;20036;-88
2022/05/20 09:59:25;;;;;;;11.52;10.60;;;26.80;64.10;;;;;;4771545;30;20410;-89
2022/05/20 10:02:06;;;;;;;11.15;10.25;;;27.00;63.60;;;;;;4757196;30;20044;-90
2022/05/20 10:05:09;;;;;;;11.32;10.40;;;26.90;62.70;;;;;;4772091;30;20399;-89
2022/05/20 10:07:39;;;;;;;11.57;10.93;;;27.00;61.10;;;;;;4744803;30;20036;-90
2022/05/20 10:10:27;;;;;;;11.88;11.07;;;27.00;62.10;;;;;;4757065;30;20032;-90
2022/05/20 10:12:55;;;;;;;10.93;10.18;;;27.10;63.20;;;;;;4757081;30;20028;-88
2022/05/20 10:15:29;;;;;;;11.50;10.90;;;27.20;62.60;;;;;;4772036;30;20059;-88
2022/05/20 10:18:24;;;;;;;11.98;11.18;;;27.20;61.50;;;;;;4771710;30;20401;-89
2022/05/20 10:20:50;;;;;;;10.80;10.30;;;27.00;62.80;;;;;;4756641;30;20091;-87
2022/05/20 10:23:54;;;;;;;11.27;10.68;;;27.10;63.50;;;;;;4775395;30;20389;-88
2022/05/20 10:26:29;;;;;;;11.00;10.20;;;27.10;63.70;;;;;;4772995;30;20131;-90
2022/05/20 10:32:53;;;;;;;12.02;11.32;;;27.10;63.70;;;;;;4735292;30;20410;-88
2022/05/20 10:35:26;;;;;;;12.20;11.38;;;27.50;65.90;;;;;;4775165;30;20187;-87
2022/05/20 10:38:30;;;;;;;13.27;12.00;;;27.40;63.30;;;;;;4774421;30;20035;-92
2022/05/20 10:41:38;;;;;;;12.18;11.15;;;27.00;62.10;;;;;;4764140;30;20051;-93
2022/05/20 10:50:31;;;;;;;;;;;27.20;66.00;;;;;;4775604;30;20043;-92
2022/05/20 10:53:29;;;;;;;11.20;10.63;;;27.30;66.80;;;;;;4778806;30;19914;-92
2022/05/20 10:56:30;;;;;;;12.10;11.20;;;27.30;64.20;;;;;;4768894;30;20070;-92
2022/05/20 10:59:03;;;;;;;12.20;11.50;;;27.30;65.30;;;;;;4783784;30;20115;-91
2022/05/20 11:01:51;;;;;;;12.40;11.50;;;27.30;63.30;;;;;;4759896;30;20578;-92
2022/05/20 11:04:54;;;;;;;11.98;11.18;;;27.00;65.00;;;;;;4763100;30;20063;-92
2022/05/20 11:08:00;;;;;;;10.65;10.15;;;27.30;65.40;;;;;;4773816;30;20039;-93
2022/05/20 11:10:43;;;;;;;11.80;10.95;;;27.60;63.70;;;;;;4771968;30;20038;-92
2022/05/20 11:14:03;;;;;;;;;;;;;;;;;;;;;
2022/05/20 11:37:04;;;;;;;11.20;10.60;;;27.30;65.80;;;;;;4828766;24;20047;-93
2022/05/20 12:47:44;;;;;;;14.18;12.93;;;27.70;59.80;;;;;;1334893;24;21569;-90
2022/05/20 12:50:26;;;;;;;14.63;13.43;;;27.70;59.40;;;;;;4786722;30;20059;-90
2022/05/20 12:53:34;;;;;;;14.40;13.23;;;27.80;60.40;;;;;;4793671;29;20031;-92
2022/05/20 13:00:24;;;;;;;14.23;13.18;;;27.90;62.80;;;;;;4857684;24;20111;-92
2022/05/20 13:03:14;;;;;;;13.57;12.27;;;27.70;63.40;;;;;;4774291;29;20451;-91
2022/05/20 14:07:36;;;;;;;10.23;9.50;;;27.10;69.60;;;;;;700405;24;20318;-92
2022/05/20 14:10:21;;;;;;;9.90;9.30;;;27.20;69.80;;;;;;4773735;30;20108;-92
2022/05/20 14:12:56;;;;;;;10.13;9.48;;;27.10;70.60;;;;;;4775118;30;20104;-92
2022/05/20 14:15:44;;;;;;;10.00;9.50;;;27.30;69.80;;;;;;4760186;30;20038;-92
2022/05/20 14:18:20;;;;;;;9.60;9.10;;;27.40;69.10;;;;;;4776171;30;20042;-93
2022/05/20 14:20:53;;;;;;;9.27;8.88;;;27.50;69.20;;;;;;4761402;30;20051;-93
2022/05/20 14:23:20;;;;;;;9.85;9.15;;;27.10;69.60;;;;;;4775394;30;20441;-93
2022/05/20 14:25:54;;;;;;;10.02;9.20;;;26.90;69.00;;;;;;4775380;30;20035;-92
2022/05/20 14:28:36;;;;;;;10.15;9.40;;;26.90;70.00;;;;;;4780433;30;20035;-90
2022/05/20 14:31:04;;;;;;;9.18;8.57;;;26.90;69.80;;;;;;4775214;30;20046;-93
2022/05/20 14:33:36;;;;;;;9.25;8.68;;;27.00;70.80;;;;;;4774885;30;20035;-90
2022/05/20 14:36:11;;;;;;;10.35;9.55;;;27.10;68.00;;;;;;4774766;30;20039;-92
2022/05/20 14:38:48;;;;;;;10.40;9.48;;;27.00;67.40;;;;;;4774683;30;20031;-91
2022/05/20 14:41:26;;;;;;;9.25;8.75;;;26.90;67.00;;;;;;4774642;30;20054;-91
2022/05/20 14:44:05;;;;;;;9.98;9.20;;;26.80;67.00;;;;;;4789395;29;20090;-92
2022/05/20 14:49:31;;;;;;;9.95;9.38;;;27.10;66.40;;;;;;4774396;30;20112;-92
2022/05/20 14:51:59;;;;;;;9.70;9.00;;;26.80;65.80;;;;;;4774052;30;20180;-91
2022/05/20 14:54:35;;;;;;;9.82;8.93;;;26.90;66.40;;;;;;4774288;30;20040;-92
2022/05/20 14:57:28;;;;;;;9.75;9.13;;;27.00;66.10;;;;;;4774402;30;20114;-92
2022/05/20 15:00:25;;;;;;;9.63;9.10;;;26.90;65.70;;;;;;4759277;30;20102;-91
2022/05/20 15:02:53;;;;;;;10.00;9.40;;;26.90;66.40;;;;;;4686707;30;20132;-90
2022/05/20 15:05:21;;;;;;;9.65;9.25;;;26.80;66.40;;;;;;4700350;30;20053;-91
2022/05/20 15:07:56;;;;;;;10.05;9.35;;;26.90;66.00;;;;;;4685877;30;20058;-91
2022/05/20 15:10:23;;;;;;;9.80;9.20;;;26.90;65.80;;;;;;4700651;30;20041;-90
2022/05/20 15:12:50;;;;;;;10.10;9.40;;;26.80;66.00;;;;;;4700111;30;20050;-91
2022/05/20 15:15:18;;;;;;;9.75;9.15;;;26.80;66.20;;;;;;4700033;30;20092;-90
2022/05/20 15:17:59;;;;;;;10.02;9.23;;;26.80;66.30;;;;;;4700194;30;20063;-91
2022/05/20 15:20:29;;;;;;;9.50;8.80;;;26.60;66.20;;;;;;4700153;30;20623;-90
2022/05/20 15:22:57;;;;;;;10.43;9.55;;;26.50;67.00;;;;;;4699856;30;20049;-91
2022/05/20 15:25:26;;;;;;;9.77;9.15;;;26.50;66.70;;;;;;4685493;30;20037;-91
2022/05/20 15:27:52;;;;;;;10.68;9.75;;;26.50;66.60;;;;;;4699640;30;20030;-91
2022/05/20 15:30:19;;;;;;;9.85;9.23;;;26.50;66.40;;;;;;4685185;30;20125;-91
2022/05/20 15:35:30;;;;;;;9.80;9.00;;;26.60;67.30;;;;;;4700024;30;20041;-91
2022/05/20 15:38:00;;;;;;;9.77;9.27;;;26.60;66.10;;;;;;4699933;30;20033;-91
2022/05/20 15:40:36;;;;;;;9.60;9.05;;;26.40;65.20;;;;;;4758785;30;20122;-92
2022/05/20 15:43:03;;;;;;;9.82;9.32;;;26.30;64.80;;;;;;4773677;30;20035;-91
2022/05/20 15:45:29;;;;;;;9.90;9.30;;;26.10;64.50;;;;;;4773490;30;20031;-90
2022/05/20 15:47:56;;;;;;;9.40;9.00;;;26.10;64.60;;;;;;4774092;30;20031;-91
2022/05/20 15:50:24;;;;;;;10.07;9.52;;;26.10;65.30;;;;;;4773029;30;20049;-92
2022/05/20 15:53:09;;;;;;;10.05;9.45;;;26.20;64.90;;;;;;4773796;30;20046;-93
2022/05/20 15:55:39;;;;;;;10.30;9.73;;;26.10;64.10;;;;;;4774002;29;20037;-92
2022/05/20 15:58:19;;;;;;;10.20;9.60;;;25.90;64.10;;;;;;4776377;30;20039;-91
2022/05/20 16:00:45;;;;;;;10.20;9.60;;;25.70;64.70;;;;;;4779853;30;20055;-91
2022/05/20 16:03:12;;;;;;;10.10;9.60;;;25.70;64.80;;;;;;4780935;30;20027;-92
2022/05/20 16:05:40;;;;;;;10.55;9.70;;;25.70;64.80;;;;;;4775046;30;20046;-92
2022/05/20 16:08:12;;;;;;;9.38;8.90;;;25.60;64.70;;;;;;4760392;30;20047;-92
2022/05/20 16:10:40;;;;;;;9.80;9.20;;;25.60;65.20;;;;;;4779495;30;20036;-92
2022/05/20 16:13:07;;;;;;;10.70;9.90;;;25.60;65.90;;;;;;4765324;30;20043;-91
2022/05/20 16:15:35;;;;;;;10.73;9.77;;;25.60;65.80;;;;;;4759770;30;20054;-90
2022/05/20 16:18:03;;;;;;;10.38;9.60;;;25.60;66.30;;;;;;4759268;30;20393;-91
2022/05/20 16:20:30;;;;;;;10.73;10.07;;;25.50;66.70;;;;;;4758689;30;20127;-91
2022/05/20 16:22:58;;;;;;;9.98;9.48;;;25.50;66.50;;;;;;4759148;30;20126;-91
2022/05/20 16:25:29;;;;;;;10.63;9.98;;;25.30;65.50;;;;;;4758684;30;20035;-91
2022/05/20 16:27:56;;;;;;;11.02;10.32;;;25.20;64.50;;;;;;4758967;30;20031;-90
2022/05/20 16:30:28;;;;;;;10.38;9.57;;;25.10;65.60;;;;;;4759152;30;20068;-91
2022/05/20 16:32:55;;;;;;;9.90;9.40;;;25.00;66.60;;;;;;4759083;30;20066;-90
2022/05/20 16:35:21;;;;;;;10.63;9.65;;;24.90;67.80;;;;;;4759122;30;20068;-91
2022/05/20 16:37:49;;;;;;;9.73;9.10;;;24.90;67.80;;;;;;4758966;30;20031;-91
2022/05/20 16:40:19;;;;;;;10.05;9.45;;;24.80;67.20;;;;;;4758652;30;20047;-91
2022/05/20 16:42:45;;;;;;;10.77;10.10;;;24.70;67.30;;;;;;4773376;30;20040;-89
2022/05/20 16:45:13;;;;;;;11.05;10.25;;;24.60;67.50;;;;;;4762928;30;20031;-91
2022/05/20 16:47:44;;;;;;;10.18;9.57;;;24.60;67.50;;;;;;4762538;30;20088;-91
2022/05/20 16:50:12;;;;;;;10.18;9.40;;;24.50;68.20;;;;;;4761877;30;20032;-91
2022/05/20 16:52:39;;;;;;;9.98;9.35;;;24.40;68.30;;;;;;4762705;30;20031;-91
2022/05/20 16:55:06;;;;;;;10.15;9.45;;;24.40;68.70;;;;;;4763313;30;20054;-91
2022/05/20 17:03:05;;;;;;;9.85;9.32;;;24.30;67.20;;;;;;4777853;30;20126;-92
2022/05/20 17:05:31;;;;;;;10.70;9.85;;;24.30;67.10;;;;;;4778706;30;20031;-90
2022/05/20 17:07:59;;;;;;;10.00;9.40;;;24.20;67.10;;;;;;4763554;30;20440;-91
2022/05/20 17:10:28;;;;;;;10.43;9.40;;;24.10;66.70;;;;;;4766787;30;20039;-91
2022/05/20 17:12:56;;;;;;;10.20;9.60;;;24.00;67.00;;;;;;4764514;30;20126;-91